Miranda, Argentina
Current Conditions -  °F | °C
As of 1:00 PM on Friday 24 Oct 2014 (Local Time) from SCSE Reporting Station
Broken Clouds Broken Clouds  
Wind Chill: 59°   Ceiling: 1300
Heat Index: 59°   Visibility: 6mi
Dew Point: 54°   Wind: 9mph
Humidity: 82%   Direction: 280°W
Pressure: 29.97"   Gusts: NA
Location:  29.32°S, 67.64°W
Report Text: SCSE 241600Z 28008KT 9999 FEW010 BKN013 15/12 Q1015
Loading
Personal Weather Stations






























Interactive Weather Map
Tropical Storm Tracking
New forecast layout! Learn more

10-Day Weather Forecast

Advertisements
Track Severe Weather on mobile